Time;durP1;ratioP1;P1;durP2;ratioP2;P2;SDS_P1;SDS_P2;PMS_P1;PMS_P2;Temp;Humidity;BMP_temperature;BMP_pressure;BME280_temperature;BME280_humidity;BME280_pressure;Samples;Min_cycle;Max_cycle;Signal;HPM_P1;HPM_P2
2021/04/02 00:00:49;;;;;;;10.98;7.50;;;9.60;58.50;;;;;;5037279;28;20203;-90
2021/04/02 00:03:34;;;;;;;7.40;6.80;;;11.40;61.90;;;;;;5034929;28;20182;-90
2021/04/02 00:06:03;;;;;;;13.93;6.70;;;7.30;57.10;;;;;;5033003;28;20418;-90
2021/04/02 00:08:30;;;;;;;7.73;7.13;;;8.10;59.50;;;;;;5032856;28;20434;-90
2021/04/02 00:11:01;;;;;;;8.23;7.50;;;8.90;69.50;;;;;;5018705;28;20404;-90
2021/04/02 00:13:35;;;;;;;7.63;7.13;;;7.30;59.30;;;;;;5030004;28;20169;-90
2021/04/02 00:16:03;;;;;;;8.57;6.93;;;8.40;62.20;;;;;;5034005;28;20396;-91
2021/04/02 00:18:30;;;;;;;7.30;6.60;;;8.50;63.00;;;;;;5019944;28;20428;-90
2021/04/02 00:20:57;;;;;;;7.77;7.20;;;7.60;62.70;;;;;;5034995;28;20953;-90
2021/04/02 00:23:24;;;;;;;7.60;6.90;;;7.70;60.00;;;;;;5015820;28;20427;-92
2021/04/02 00:25:51;;;;;;;7.27;6.63;;;10.50;62.10;;;;;;5033519;28;20615;-92
2021/04/02 00:28:20;;;;;;;10.03;7.87;;;7.90;60.70;;;;;;5032307;28;20403;-92
2021/04/02 00:30:51;;;;;;;7.30;6.07;;;8.60;60.80;;;;;;5032318;28;20395;-90
2021/04/02 00:33:19;;;;;;;14.70;7.47;;;8.50;60.80;;;;;;5031592;28;20418;-91
2021/04/02 00:35:45;;;;;;;8.77;8.03;;;6.00;58.50;;;;;;5033664;28;20235;-90
2021/04/02 00:38:12;;;;;;;7.43;6.77;;;6.60;65.60;;;;;;5033115;28;20431;-91
2021/04/02 00:40:42;;;;;;;10.83;7.40;;;10.30;66.30;;;;;;5036287;28;20678;-90
2021/04/02 00:43:09;;;;;;;9.38;6.68;;;5.20;59.80;;;;;;5036725;28;20440;-90
2021/04/02 00:45:35;;;;;;;7.43;6.73;;;8.30;64.80;;;;;;5036501;28;20181;-91
2021/04/02 00:48:04;;;;;;;8.70;6.87;;;8.10;71.20;;;;;;5035542;28;20434;-93
2021/04/02 00:50:46;;;;;;;7.83;7.13;;;8.40;62.80;;;;;;5038712;28;20415;-91
2021/04/02 00:53:19;;;;;;;8.30;7.20;;;8.10;67.80;;;;;;5038237;28;20430;-91
2021/04/02 00:55:56;;;;;;;10.03;7.33;;;9.00;61.30;;;;;;5038620;28;20403;-89
2021/04/02 00:58:26;;;;;;;11.95;8.02;;;10.50;63.70;;;;;;5038974;28;20415;-91
2021/04/02 01:01:06;;;;;;;8.87;8.00;;;8.40;62.80;;;;;;5039058;28;20161;-90
2021/04/02 01:03:32;;;;;;;8.43;7.73;;;9.40;64.20;;;;;;5037680;28;20443;-90
2021/04/02 01:06:02;;;;;;;7.72;6.97;;;8.30;64.80;;;;;;5036841;28;20426;-91
2021/04/02 01:08:33;;;;;;;11.03;7.70;;;9.10;59.30;;;;;;5039451;28;20215;-90
2021/04/02 01:11:09;;;;;;;8.03;7.23;;;11.70;64.60;;;;;;5037698;28;20479;-91
2021/04/02 01:13:44;;;;;;;10.70;7.20;;;8.50;59.40;;;;;;5037140;28;20427;-92
2021/04/02 01:16:32;;;;;;;8.23;7.33;;;9.10;59.60;;;;;;5038978;28;20429;-91
2021/04/02 01:19:06;;;;;;;8.07;7.53;;;10.00;59.80;;;;;;5035152;28;20435;-91
2021/04/02 01:21:56;;;;;;;13.80;8.70;;;7.00;58.80;;;;;;5032557;28;20477;-91
2021/04/02 01:24:34;;;;;;;7.80;7.10;;;10.30;65.50;;;;;;5036417;28;20435;-92
2021/04/02 01:27:21;;;;;;;7.73;7.03;;;10.50;65.10;;;;;;5035571;28;20502;-90
2021/04/02 01:30:05;;;;;;;9.83;7.20;;;8.30;61.10;;;;;;5032879;28;20407;-91
2021/04/02 01:32:43;;;;;;;6.93;6.47;;;7.40;60.40;;;;;;5032451;28;20435;-90
2021/04/02 01:35:16;;;;;;;7.00;6.40;;;7.90;66.10;;;;;;5032544;28;20466;-90
2021/04/02 01:37:54;;;;;;;8.87;7.90;;;8.50;65.60;;;;;;5034802;28;20164;-90
2021/04/02 01:40:26;;;;;;;6.80;6.30;;;8.60;60.50;;;;;;5037263;28;20428;-91
2021/04/02 01:42:53;;;;;;;7.13;6.33;;;7.30;62.60;;;;;;5035755;28;20467;-90
2021/04/02 01:45:27;;;;;;;8.53;6.90;;;10.30;62.30;;;;;;5033481;28;20506;-91
2021/04/02 01:47:53;;;;;;;8.30;7.60;;;11.10;65.20;;;;;;5031543;28;20518;-91
2021/04/02 01:50:21;;;;;;;9.70;8.70;;;11.10;65.50;;;;;;5030172;28;20418;-90
2021/04/02 01:52:47;;;;;;;8.52;7.75;;;10.20;64.80;;;;;;5030548;28;20416;-92
2021/04/02 01:55:19;;;;;;;10.00;8.80;;;7.30;64.70;;;;;;5028591;28;20183;-91
2021/04/02 01:57:47;;;;;;;9.43;8.50;;;8.50;62.30;;;;;;5031333;28;20917;-91
2021/04/02 02:00:23;;;;;;;7.60;7.07;;;8.20;66.50;;;;;;5035092;28;20428;-91
2021/04/02 02:02:53;;;;;;;8.53;7.73;;;7.70;61.40;;;;;;5031647;28;20441;-92
2021/04/02 02:05:23;;;;;;;8.50;7.70;;;6.90;61.80;;;;;;5031209;28;20404;-91
2021/04/02 02:07:53;;;;;;;8.13;7.60;;;9.20;63.30;;;;;;5034147;28;20420;-90
2021/04/02 02:10:22;;;;;;;8.18;6.97;;;9.10;66.30;;;;;;5034218;28;20157;-91
2021/04/02 02:12:49;;;;;;;7.47;7.07;;;8.40;72.90;;;;;;5033883;28;20176;-89
2021/04/02 02:15:16;;;;;;;12.33;8.50;;;9.10;68.80;;;;;;5033972;28;20437;-91
2021/04/02 02:17:56;;;;;;;7.90;7.30;;;10.30;69.40;;;;;;5037195;28;20400;-91
2021/04/02 02:20:23;;;;;;;8.20;7.60;;;9.70;63.80;;;;;;5037537;28;20411;-91
2021/04/02 02:22:50;;;;;;;9.40;8.40;;;7.20;65.50;;;;;;5038303;28;20208;-90
2021/04/02 02:25:23;;;;;;;8.60;8.00;;;7.70;68.10;;;;;;5038603;28;20404;-89
2021/04/02 02:27:54;;;;;;;9.30;8.37;;;8.70;63.50;;;;;;5036007;28;20431;-90
2021/04/02 02:30:27;;;;;;;9.45;8.75;;;7.70;67.20;;;;;;5035991;28;20425;-90
2021/04/02 02:32:56;;;;;;;9.50;8.70;;;7.80;67.40;;;;;;5034488;28;20232;-91
2021/04/02 02:35:25;;;;;;;8.27;7.50;;;9.60;70.30;;;;;;5034629;28;20651;-91
2021/04/02 02:37:55;;;;;;;14.13;8.63;;;9.60;70.50;;;;;;5035000;28;20156;-89
2021/04/02 02:40:28;;;;;;;10.20;9.18;;;9.40;72.30;;;;;;5033066;28;20455;-92
2021/04/02 02:42:57;;;;;;;8.93;7.70;;;8.30;66.80;;;;;;5034202;28;20299;-92
2021/04/02 02:45:24;;;;;;;13.75;8.75;;;10.40;72.00;;;;;;5033688;28;20423;-91
2021/04/02 02:47:52;;;;;;;15.60;9.73;;;7.30;67.70;;;;;;5033499;28;20249;-91
2021/04/02 02:50:22;;;;;;;8.83;7.93;;;7.60;64.60;;;;;;5034894;28;20507;-90
2021/04/02 02:52:48;;;;;;;10.47;8.80;;;10.60;71.30;;;;;;5035065;28;20404;-91
2021/04/02 02:55:16;;;;;;;11.80;9.40;;;6.40;63.30;;;;;;5034122;28;20416;-90
2021/04/02 02:57:44;;;;;;;12.43;10.00;;;7.50;65.10;;;;;;5032367;28;20424;-91
2021/04/02 03:00:15;;;;;;;10.53;9.73;;;7.50;64.80;;;;;;5033133;28;20418;-91
2021/04/02 03:02:45;;;;;;;11.65;9.77;;;7.70;64.50;;;;;;5030457;28;21036;-92
2021/04/02 03:05:14;;;;;;;10.88;9.75;;;8.00;68.80;;;;;;5028676;28;20173;-90
2021/04/02 03:07:43;;;;;;;11.53;10.43;;;7.70;67.80;;;;;;5012712;28;20256;-91
2021/04/02 03:10:10;;;;;;;13.35;11.77;;;7.20;67.80;;;;;;5034658;28;20907;-90
2021/04/02 03:12:39;;;;;;;12.63;10.70;;;7.90;72.10;;;;;;5014635;28;20169;-90
2021/04/02 03:15:07;;;;;;;12.90;10.93;;;7.40;68.20;;;;;;5027826;28;20427;-92
2021/04/02 03:17:35;;;;;;;12.60;10.10;;;7.80;68.90;;;;;;5029090;28;20428;-91
2021/04/02 03:20:05;;;;;;;11.57;9.52;;;7.70;66.70;;;;;;5031017;28;20411;-91
2021/04/02 03:22:32;;;;;;;14.63;10.60;;;7.70;66.10;;;;;;5030526;28;20270;-90
2021/04/02 03:25:01;;;;;;;10.47;9.33;;;8.40;67.00;;;;;;5034615;28;20451;-90
2021/04/02 03:27:28;;;;;;;11.93;10.73;;;7.30;70.80;;;;;;5035305;28;20414;-90
2021/04/02 03:29:57;;;;;;;12.23;11.13;;;7.40;66.90;;;;;;5032781;28;20404;-90
2021/04/02 03:32:26;;;;;;;12.93;11.20;;;7.40;67.20;;;;;;5030006;28;20426;-91
2021/04/02 03:34:53;;;;;;;12.90;10.87;;;7.50;67.40;;;;;;5026324;28;20220;-90
2021/04/02 03:37:20;;;;;;;19.60;12.77;;;7.30;67.20;;;;;;5025236;28;20510;-90
2021/04/02 03:39:47;;;;;;;18.27;11.02;;;7.40;67.60;;;;;;5025014;28;20412;-90
2021/04/02 03:42:15;;;;;;;15.88;13.02;;;9.90;72.10;;;;;;5023931;28;20805;-91
2021/04/02 03:44:42;;;;;;;20.37;12.33;;;7.40;67.80;;;;;;5022952;28;20189;-91
2021/04/02 03:47:14;;;;;;;15.50;13.07;;;7.50;67.90;;;;;;5022243;28;20411;-90
2021/04/02 03:49:43;;;;;;;13.77;12.47;;;6.80;67.40;;;;;;5022062;28;20474;-90
2021/04/02 03:52:15;;;;;;;16.02;14.43;;;7.50;67.30;;;;;;5022964;28;20458;-90
2021/04/02 03:54:42;;;;;;;19.73;13.60;;;7.70;67.70;;;;;;5023403;28;20177;-90
2021/04/02 03:57:11;;;;;;;20.10;14.80;;;7.70;67.70;;;;;;5027427;28;20422;-91
2021/04/02 03:59:39;;;;;;;27.43;18.50;;;7.70;67.10;;;;;;5028529;28;20394;-90
2021/04/02 04:02:07;;;;;;;21.13;17.60;;;7.70;67.20;;;;;;5026757;28;20526;-90
2021/04/02 04:04:33;;;;;;;26.53;18.80;;;7.40;67.80;;;;;;5025899;28;20431;-90
2021/04/02 04:07:01;;;;;;;26.63;19.67;;;7.30;67.10;;;;;;5025849;28;20428;-90
2021/04/02 04:09:29;;;;;;;27.30;19.77;;;7.30;67.80;;;;;;5007446;28;20226;-91
2021/04/02 04:12:00;;;;;;;25.87;18.20;;;7.40;68.40;;;;;;5023129;28;20755;-92
2021/04/02 04:14:27;;;;;;;26.37;18.13;;;7.40;69.60;;;;;;5025134;28;20414;-90
2021/04/02 04:16:55;;;;;;;28.52;19.92;;;8.40;70.90;;;;;;5023332;28;20385;-91
2021/04/02 04:19:23;;;;;;;42.92;20.42;;;7.40;68.60;;;;;;5028269;28;20165;-91
2021/04/02 04:21:52;;;;;;;32.50;20.10;;;7.20;72.00;;;;;;5024934;28;20204;-91
2021/04/02 04:24:21;;;;;;;30.63;19.70;;;7.40;69.50;;;;;;5025172;28;20411;-91
2021/04/02 04:26:48;;;;;;;32.33;21.07;;;7.30;68.80;;;;;;5026651;28;20394;-90
2021/04/02 04:29:21;;;;;;;35.38;21.05;;;7.40;69.60;;;;;;5026748;28;20415;-91
2021/04/02 04:31:48;;;;;;;38.33;20.80;;;7.20;68.80;;;;;;5027269;28;20172;-91
2021/04/02 04:34:15;;;;;;;37.15;22.90;;;7.30;71.00;;;;;;5029116;28;20422;-91
2021/04/02 04:36:43;;;;;;;27.63;18.93;;;7.10;71.10;;;;;;5028987;28;20199;-90
2021/04/02 04:39:09;;;;;;;24.30;16.30;;;7.10;71.80;;;;;;5027845;28;20415;-90
2021/04/02 04:41:39;;;;;;;18.73;16.77;;;6.90;70.90;;;;;;5026093;28;20470;-91
2021/04/02 04:44:07;;;;;;;25.98;16.75;;;6.70;76.20;;;;;;5029917;28;20173;-89
2021/04/02 04:46:33;;;;;;;20.25;15.20;;;6.60;82.80;;;;;;5029492;28;20168;-91
2021/04/02 04:48:59;;;;;;;19.97;15.77;;;6.30;84.10;;;;;;5024861;28;20252;-90
2021/04/02 04:51:30;;;;;;;18.13;13.27;;;6.30;86.10;;;;;;5023738;28;20165;-90
2021/04/02 04:53:59;;;;;;;15.00;13.70;;;6.40;86.20;;;;;;5021780;28;20236;-90
2021/04/02 04:56:28;;;;;;;14.37;12.97;;;6.30;86.80;;;;;;5026278;28;20390;-91
2021/04/02 04:59:00;;;;;;;17.27;12.50;;;6.30;89.70;;;;;;5029411;28;20390;-91
2021/04/02 05:01:28;;;;;;;20.17;12.03;;;6.20;90.00;;;;;;5025077;28;20442;-90
2021/04/02 05:03:55;;;;;;;11.70;10.45;;;6.40;90.50;;;;;;5023657;28;20440;-90
2021/04/02 05:06:25;;;;;;;11.82;10.63;;;6.20;90.50;;;;;;5019851;28;20203;-90
2021/04/02 05:08:52;;;;;;;20.50;11.23;;;6.30;91.30;;;;;;5031421;28;20153;-90
2021/04/02 05:11:23;;;;;;;13.57;12.23;;;6.30;91.40;;;;;;5035908;28;20180;-91
2021/04/02 05:13:51;;;;;;;16.87;11.23;;;6.10;91.60;;;;;;5035167;28;20483;-90
2021/04/02 05:16:20;;;;;;;13.40;11.73;;;6.20;91.90;;;;;;5033341;28;20402;-91
2021/04/02 05:18:47;;;;;;;16.10;10.53;;;6.20;92.00;;;;;;5026301;28;20394;-90
2021/04/02 05:21:13;;;;;;;12.17;10.27;;;6.20;92.20;;;;;;5029380;28;20436;-90
2021/04/02 05:23:39;;;;;;;11.40;10.37;;;6.00;92.70;;;;;;5016144;28;20443;-90
2021/04/02 05:26:11;;;;;;;11.48;9.73;;;6.00;93.50;;;;;;5024527;28;20414;-90
2021/04/02 05:28:38;;;;;;;12.45;8.50;;;5.50;92.50;;;;;;5029756;28;20180;-90
2021/04/02 05:31:12;;;;;;;14.40;9.47;;;6.00;93.80;;;;;;5030205;28;20196;-89
2021/04/02 05:33:41;;;;;;;14.40;9.00;;;6.10;95.00;;;;;;5033365;28;20444;-89
2021/04/02 05:36:07;;;;;;;14.98;10.20;;;6.40;94.90;;;;;;5030943;28;20441;-90
2021/04/02 05:38:33;;;;;;;15.07;9.88;;;5.70;95.70;;;;;;5027266;28;20198;-90
2021/04/02 05:41:06;;;;;;;12.47;10.63;;;5.70;95.70;;;;;;5030244;28;20632;-91
2021/04/02 05:43:55;;;;;;;12.55;10.05;;;5.70;95.90;;;;;;5031038;28;20184;-90
2021/04/02 05:46:26;;;;;;;16.75;11.20;;;5.70;94.90;;;;;;5029537;28;20260;-89
2021/04/02 05:49:04;;;;;;;20.02;11.05;;;5.60;96.20;;;;;;5033780;28;20176;-90
2021/04/02 05:51:32;;;;;;;14.70;11.60;;;5.40;97.20;;;;;;5033520;28;20240;-89
2021/04/02 05:54:03;;;;;;;25.33;11.82;;;5.40;97.20;;;;;;5033547;28;20153;-89
2021/04/02 05:59:05;;;;;;;13.68;9.80;;;5.40;97.00;;;;;;5454530;22;20444;-89
2021/04/02 06:01:31;;;;;;;11.60;9.73;;;5.40;97.30;;;;;;5047337;28;20203;-91
2021/04/02 06:04:03;;;;;;;11.70;10.50;;;5.50;96.50;;;;;;5042610;28;20778;-90
2021/04/02 06:06:29;;;;;;;14.43;11.32;;;5.30;96.10;;;;;;5044121;28;20426;-92
2021/04/02 06:08:55;;;;;;;11.77;10.68;;;5.30;96.00;;;;;;5047243;28;20180;-92
2021/04/02 06:11:20;;;;;;;12.93;9.67;;;5.40;96.00;;;;;;5044672;28;20167;-91
2021/04/02 06:13:46;;;;;;;13.63;9.37;;;5.50;95.70;;;;;;5049166;28;20418;-90
2021/04/02 06:16:12;;;;;;;11.50;10.00;;;5.60;95.70;;;;;;5043700;28;20172;-91
2021/04/02 06:18:39;;;;;;;14.63;10.30;;;5.70;95.20;;;;;;5043273;28;20183;-88
2021/04/02 06:21:06;;;;;;;12.93;9.40;;;5.80;94.80;;;;;;5045355;28;20172;-92
2021/04/02 06:23:34;;;;;;;13.75;10.02;;;5.90;94.90;;;;;;5052356;28;20226;-89
2021/04/02 06:26:04;;;;;;;12.23;10.77;;;5.90;95.00;;;;;;5044421;28;20172;-90
2021/04/02 06:28:36;;;;;;;16.50;10.77;;;6.00;94.70;;;;;;5044088;28;20198;-90
2021/04/02 06:31:14;;;;;;;13.40;10.27;;;6.10;95.30;;;;;;5023476;28;20788;-90
2021/04/02 06:33:45;;;;;;;14.90;11.37;;;6.50;94.70;;;;;;5042032;28;20448;-91
2021/04/02 06:36:13;;;;;;;11.80;10.50;;;5.90;95.30;;;;;;5038600;28;20397;-90
2021/04/02 06:38:41;;;;;;;12.50;9.80;;;5.90;95.60;;;;;;5040763;28;20410;-89
2021/04/02 06:41:07;;;;;;;18.47;11.87;;;6.00;95.50;;;;;;5039739;28;20389;-90
2021/04/02 06:43:44;;;;;;;18.07;10.53;;;5.90;95.50;;;;;;5039804;28;20796;-91
2021/04/02 06:46:25;;;;;;;20.38;11.98;;;6.00;94.80;;;;;;5045985;28;20240;-90
2021/04/02 06:48:52;;;;;;;14.70;10.47;;;6.00;94.50;;;;;;5039168;28;20206;-88
2021/04/02 06:51:19;;;;;;;12.13;9.95;;;6.00;95.50;;;;;;5041322;28;20404;-91
2021/04/02 06:53:48;;;;;;;17.40;11.57;;;6.10;95.30;;;;;;5037832;28;20168;-91
2021/04/02 06:56:16;;;;;;;14.88;10.15;;;6.00;95.40;;;;;;4689353;28;10000466;-91
2021/04/02 06:58:44;;;;;;;16.08;10.70;;;6.10;95.20;;;;;;5035539;28;20227;-89
2021/04/02 07:01:14;;;;;;;15.10;11.30;;;6.30;95.30;;;;;;5035697;28;20234;-89
2021/04/02 07:03:42;;;;;;;10.80;9.67;;;6.40;95.10;;;;;;5044512;28;20481;-90
2021/04/02 07:06:08;;;;;;;31.88;16.40;;;6.50;94.70;;;;;;5038783;28;20523;-91
2021/04/02 07:08:37;;;;;;;14.90;10.95;;;6.60;94.50;;;;;;5038708;28;20215;-91
2021/04/02 07:11:03;;;;;;;18.03;10.80;;;6.60;94.00;;;;;;5035366;28;20185;-91
2021/04/02 07:13:38;;;;;;;17.70;10.38;;;6.60;94.20;;;;;;5037714;28;20426;-89
2021/04/02 07:16:04;;;;;;;11.67;10.10;;;6.50;94.30;;;;;;5047526;28;20171;-91
2021/04/02 07:18:30;;;;;;;15.00;10.53;;;6.60;94.00;;;;;;5037855;28;20439;-91
2021/04/02 07:20:56;;;;;;;13.40;11.50;;;6.60;93.30;;;;;;5038213;28;20397;-92
2021/04/02 07:23:22;;;;;;;18.30;10.43;;;6.70;93.30;;;;;;5037107;28;20230;-90
2021/04/02 07:25:48;;;;;;;15.03;12.20;;;6.70;93.10;;;;;;5042172;28;20176;-91
2021/04/02 07:28:17;;;;;;;12.83;10.20;;;6.80;93.50;;;;;;5040178;28;20412;-89
2021/04/02 07:30:44;;;;;;;13.10;10.38;;;6.70;93.40;;;;;;5041098;28;20418;-90
2021/04/02 07:33:12;;;;;;;13.10;11.17;;;6.70;93.20;;;;;;5038669;28;20252;-89
2021/04/02 07:35:38;;;;;;;16.77;10.10;;;6.80;93.00;;;;;;5041245;28;20386;-91
2021/04/02 07:38:10;;;;;;;13.93;10.30;;;6.90;93.00;;;;;;5040959;28;20411;-90
2021/04/02 07:40:36;;;;;;;21.38;11.40;;;6.90;92.70;;;;;;5041015;28;20905;-90
2021/04/02 07:43:07;;;;;;;11.40;10.40;;;7.00;92.30;;;;;;5038685;28;20276;-89
2021/04/02 07:45:35;;;;;;;15.43;9.43;;;6.90;92.30;;;;;;5042159;28;20436;-92
2021/04/02 07:48:16;;;;;;;12.10;10.63;;;6.90;92.40;;;;;;5040873;28;20397;-91
2021/04/02 07:50:46;;;;;;;17.70;10.10;;;6.80;92.50;;;;;;5040945;28;20441;-91
2021/04/02 07:53:18;;;;;;;11.07;9.97;;;6.80;92.70;;;;;;5042719;28;20505;-91
2021/04/02 07:56:14;;;;;;;12.87;9.70;;;6.90;92.40;;;;;;5042482;28;20433;-91
2021/04/02 07:58:46;;;;;;;9.60;8.80;;;6.90;92.20;;;;;;5040901;28;20437;-91
2021/04/02 08:01:12;;;;;;;11.30;8.90;;;7.50;92.20;;;;;;5053622;28;20198;-91
2021/04/02 08:03:40;;;;;;;11.60;10.17;;;6.90;92.80;;;;;;5045307;28;20457;-91
2021/04/02 08:06:08;;;;;;;12.90;9.93;;;6.10;91.10;;;;;;5059113;28;20410;-89
2021/04/02 08:08:41;;;;;;;14.20;9.63;;;6.90;92.10;;;;;;5059485;28;20525;-90
2021/04/02 08:11:31;;;;;;;12.07;9.53;;;6.90;92.50;;;;;;5062184;28;20406;-90
2021/04/02 08:13:59;;;;;;;13.00;9.50;;;7.10;90.90;;;;;;5062950;28;20424;-88
2021/04/02 08:16:52;;;;;;;14.83;10.13;;;6.90;91.70;;;;;;5061220;28;20396;-88
2021/04/02 08:19:20;;;;;;;14.80;10.90;;;7.30;91.40;;;;;;5060405;28;20400;-91
2021/04/02 08:21:52;;;;;;;11.00;9.57;;;7.00;92.00;;;;;;5060213;28;20462;-90
2021/04/02 08:24:21;;;;;;;12.03;9.67;;;7.30;91.70;;;;;;5059077;28;20558;-89
2021/04/02 08:26:48;;;;;;;10.60;8.70;;;7.30;91.00;;;;;;5061288;28;20448;-87
2021/04/02 08:29:16;;;;;;;11.17;8.50;;;7.50;90.80;;;;;;5064470;28;20421;-90
2021/04/02 08:31:45;;;;;;;14.30;10.30;;;7.50;90.40;;;;;;5066027;28;20435;-88
2021/04/02 08:34:13;;;;;;;9.53;8.77;;;7.70;90.30;;;;;;5064265;28;20409;-90
2021/04/02 08:36:40;;;;;;;14.20;10.23;;;7.90;90.10;;;;;;5066015;28;20913;-90
2021/04/02 08:39:06;;;;;;;10.38;7.80;;;7.90;90.00;;;;;;5056238;28;20461;-88
2021/04/02 08:41:32;;;;;;;9.30;8.30;;;8.00;88.60;;;;;;5051031;28;20202;-88
2021/04/02 08:44:03;;;;;;;12.20;9.40;;;7.90;88.10;;;;;;5055748;28;20418;-91
2021/04/02 08:46:37;;;;;;;11.80;10.60;;;8.10;88.90;;;;;;5061403;28;20194;-90
2021/04/02 08:49:05;;;;;;;12.47;10.17;;;7.90;88.00;;;;;;5061092;28;21004;-89
2021/04/02 08:51:31;;;;;;;9.20;8.40;;;7.90;88.00;;;;;;4676926;28;10000467;-88
2021/04/02 08:53:57;;;;;;;11.47;9.27;;;7.80;88.20;;;;;;5031656;28;20168;-88
2021/04/02 08:56:28;;;;;;;9.10;8.30;;;7.70;88.50;;;;;;5036374;28;20431;-86
2021/04/02 08:58:54;;;;;;;14.07;9.47;;;7.50;89.20;;;;;;5036563;28;21042;-89
2021/04/02 09:01:21;;;;;;;15.23;9.57;;;7.50;90.00;;;;;;5041604;28;20438;-88
2021/04/02 09:03:52;;;;;;;11.60;8.67;;;7.60;90.00;;;;;;5040138;28;20808;-88
2021/04/02 09:06:18;;;;;;;11.00;8.90;;;7.60;90.00;;;;;;5039320;28;20410;-89
2021/04/02 09:08:44;;;;;;;16.03;10.50;;;7.80;89.80;;;;;;5035581;28;20422;-88
2021/04/02 09:11:12;;;;;;;15.10;9.00;;;7.70;89.50;;;;;;5038041;28;20492;-87
2021/04/02 09:13:40;;;;;;;9.57;8.00;;;7.70;89.00;;;;;;5040239;28;20205;-88
2021/04/02 09:16:10;;;;;;;7.80;7.10;;;7.70;88.70;;;;;;5036119;28;20498;-83
2021/04/02 09:18:56;;;;;;;8.73;7.90;;;8.00;88.20;;;;;;5031927;28;20422;-84
2021/04/02 09:21:24;;;;;;;10.32;7.47;;;8.20;87.90;;;;;;5033137;28;20462;-84
2021/04/02 09:23:52;;;;;;;8.20;7.33;;;8.20;87.40;;;;;;5033650;28;20172;-86
2021/04/02 09:26:18;;;;;;;15.10;7.77;;;7.90;88.50;;;;;;5033815;28;20886;-85
2021/04/02 09:28:44;;;;;;;8.52;7.57;;;8.20;87.00;;;;;;5032407;28;20433;-86
2021/04/02 09:31:19;;;;;;;7.80;7.10;;;8.60;88.00;;;;;;5033269;28;20168;-87
2021/04/02 09:33:46;;;;;;;7.43;6.83;;;8.40;86.50;;;;;;5032284;28;20446;-86
2021/04/02 09:36:13;;;;;;;7.80;7.10;;;8.20;85.40;;;;;;5032968;28;20406;-86
2021/04/02 09:38:41;;;;;;;12.03;10.10;;;7.80;87.80;;;;;;5036937;28;20841;-86
2021/04/02 09:41:07;;;;;;;12.93;10.40;;;8.30;85.40;;;;;;5051796;28;20757;-85
2021/04/02 09:43:52;;;;;;;11.83;10.43;;;8.40;86.20;;;;;;5053033;28;20425;-85
2021/04/02 09:46:31;;;;;;;14.20;12.70;;;8.10;86.60;;;;;;5051479;28;20167;-84
2021/04/02 09:49:03;;;;;;;15.53;12.60;;;8.50;86.60;;;;;;5051839;28;20429;-86
2021/04/02 09:51:30;;;;;;;16.17;14.40;;;8.20;86.50;;;;;;5052602;28;20539;-86
2021/04/02 09:53:55;;;;;;;18.07;13.83;;;7.90;87.50;;;;;;5051533;28;20802;-86
2021/04/02 09:56:21;;;;;;;14.43;13.03;;;8.00;86.90;;;;;;5053298;28;20463;-85
2021/04/02 09:58:46;;;;;;;24.60;16.30;;;8.20;86.60;;;;;;5052248;28;20219;-85
2021/04/02 10:01:12;;;;;;;20.63;17.13;;;8.30;85.50;;;;;;5053219;28;20532;-86
2021/04/02 10:03:37;;;;;;;24.80;18.80;;;8.30;86.60;;;;;;5054659;28;20211;-85
2021/04/02 10:06:04;;;;;;;21.23;17.30;;;8.60;86.90;;;;;;5052588;28;20167;-87
2021/04/02 10:08:29;;;;;;;27.13;19.83;;;8.90;86.80;;;;;;5054431;28;20258;-83
2021/04/02 10:10:55;;;;;;;22.00;18.77;;;8.70;87.50;;;;;;5053803;28;20494;-86
2021/04/02 10:13:23;;;;;;;18.73;15.93;;;9.00;86.50;;;;;;5065688;28;20175;-89
2021/04/02 10:15:49;;;;;;;19.70;15.90;;;9.00;86.30;;;;;;5068498;28;20205;-89
2021/04/02 10:18:27;;;;;;;19.73;14.67;;;8.80;87.30;;;;;;5055293;28;20437;-90
2021/04/02 10:21:09;;;;;;;23.57;18.17;;;8.70;87.40;;;;;;5073587;28;20429;-88
2021/04/02 10:23:35;;;;;;;20.83;18.67;;;8.70;87.20;;;;;;5068984;28;20442;-89
2021/04/02 10:26:01;;;;;;;26.97;20.67;;;8.80;87.20;;;;;;5172281;22;20654;-88
2021/04/02 10:28:38;;;;;;;32.20;23.73;;;8.90;87.00;;;;;;5036890;28;20534;-89
2021/04/02 10:31:20;;;;;;;29.07;22.70;;;8.80;87.30;;;;;;5038388;28;20188;-91
2021/04/02 10:33:47;;;;;;;31.13;22.73;;;9.00;87.30;;;;;;5030990;28;20419;-92
2021/04/02 10:36:16;;;;;;;29.50;23.43;;;8.90;86.20;;;;;;5017693;28;20415;-91
2021/04/02 10:38:46;;;;;;;38.43;27.67;;;9.00;86.10;;;;;;5032923;28;20450;-88
2021/04/02 10:41:22;;;;;;;31.40;25.93;;;8.80;84.90;;;;;;5067185;28;20404;-91
2021/04/02 10:44:22;;;;;;;34.67;26.37;;;8.60;84.80;;;;;;5126797;22;20473;-90
2021/04/02 10:46:51;;;;;;;37.30;29.63;;;8.60;84.70;;;;;;5028831;28;20493;-88
2021/04/02 10:49:20;;;;;;;39.10;29.63;;;8.60;85.30;;;;;;5030300;28;20419;-89
2021/04/02 10:51:50;;;;;;;45.43;31.73;;;8.60;84.50;;;;;;5007681;28;20434;-89
2021/04/02 10:54:15;;;;;;;36.77;29.47;;;8.50;84.30;;;;;;5024684;28;20442;-90
2021/04/02 10:56:41;;;;;;;41.40;32.53;;;8.70;84.50;;;;;;5039353;28;20419;-90
2021/04/02 10:59:10;;;;;;;39.03;31.37;;;8.90;83.30;;;;;;5041890;28;20239;-92
2021/04/02 11:01:36;;;;;;;40.50;30.70;;;9.00;83.20;;;;;;5019274;28;20269;-90
2021/04/02 11:04:02;;;;;;;40.00;31.80;;;8.90;83.30;;;;;;5027856;28;20419;-91
2021/04/02 11:06:29;;;;;;;34.33;28.27;;;8.90;83.00;;;;;;5014340;28;20195;-90
2021/04/02 11:08:55;;;;;;;41.43;30.00;;;9.50;83.50;;;;;;5027488;28;20863;-91
2021/04/02 11:11:21;;;;;;;39.73;30.63;;;9.10;82.60;;;;;;5029501;28;20416;-90
2021/04/02 11:13:49;;;;;;;41.90;32.87;;;8.90;82.60;;;;;;5030959;28;20181;-87
2021/04/02 11:16:28;;;;;;;38.63;31.17;;;9.10;81.30;;;;;;5013220;28;20469;-90
2021/04/02 11:18:57;;;;;;;43.33;31.93;;;9.10;80.30;;;;;;5028824;28;20479;-88
2021/04/02 11:21:33;;;;;;;39.07;29.27;;;8.90;80.50;;;;;;5028313;28;20408;-91
2021/04/02 11:24:06;;;;;;;37.10;30.10;;;8.90;80.70;;;;;;5033848;28;20471;-90
2021/04/02 11:26:37;;;;;;;35.43;29.67;;;8.70;82.30;;;;;;5024887;28;20423;-90
2021/04/02 11:29:03;;;;;;;28.63;22.53;;;8.50;80.80;;;;;;5023725;28;20428;-88
2021/04/02 11:31:31;;;;;;;18.47;15.37;;;8.60;82.10;;;;;;5022884;28;20949;-90
2021/04/02 11:34:00;;;;;;;16.13;12.23;;;9.00;83.30;;;;;;5029754;28;20176;-89
2021/04/02 11:36:41;;;;;;;10.13;8.93;;;8.60;82.30;;;;;;4663393;28;10000296;-91
2021/04/02 11:39:15;;;;;;;8.63;7.83;;;8.60;80.80;;;;;;5010921;28;20177;-90
2021/04/02 11:41:41;;;;;;;13.23;10.17;;;8.60;81.90;;;;;;5006962;28;20483;-91
2021/04/02 11:44:07;;;;;;;9.73;8.77;;;8.40;81.50;;;;;;5006968;28;20468;-89
2021/04/02 11:46:32;;;;;;;10.37;8.70;;;8.30;81.70;;;;;;5006237;28;20350;-88
2021/04/02 11:48:58;;;;;;;11.77;8.93;;;8.20;80.80;;;;;;5002363;28;20436;-90
2021/04/02 11:51:24;;;;;;;10.60;9.60;;;8.40;80.70;;;;;;4998648;28;20176;-92
2021/04/02 11:53:54;;;;;;;9.90;8.77;;;8.50;80.10;;;;;;4999349;28;20235;-92
2021/04/02 11:56:23;;;;;;;10.07;8.77;;;8.60;78.70;;;;;;4999298;28;20429;-92
2021/04/02 11:58:48;;;;;;;11.77;9.67;;;8.90;79.60;;;;;;4999862;28;20420;-93
2021/04/02 12:01:14;;;;;;;14.60;8.53;;;8.70;78.60;;;;;;5001687;28;20484;-92
2021/04/02 12:03:41;;;;;;;7.27;6.60;;;8.90;78.10;;;;;;4996702;28;20206;-91
2021/04/02 12:06:07;;;;;;;10.20;6.97;;;8.80;76.90;;;;;;5001004;28;20173;-90
2021/04/02 12:08:32;;;;;;;11.30;8.50;;;8.90;77.90;;;;;;5002059;28;20447;-88
2021/04/02 12:10:59;;;;;;;7.87;7.17;;;8.70;77.50;;;;;;5002783;28;20208;-91
2021/04/02 12:13:25;;;;;;;6.93;6.30;;;7.90;75.40;;;;;;5004767;28;20173;-90
2021/04/02 12:15:52;;;;;;;6.43;5.93;;;8.90;76.00;;;;;;5001388;28;20420;-90
2021/04/02 12:18:17;;;;;;;6.17;4.97;;;9.10;75.90;;;;;;5000539;28;20292;-90
2021/04/02 12:21:04;;;;;;;6.20;5.13;;;9.20;74.70;;;;;;5007592;28;20911;-91
2021/04/02 12:23:31;;;;;;;9.00;4.50;;;9.40;74.40;;;;;;5006495;28;20772;-90
2021/04/02 12:25:56;;;;;;;9.57;5.80;;;9.60;75.60;;;;;;4995997;28;20478;-87
2021/04/02 12:28:22;;;;;;;10.87;5.50;;;9.70;75.90;;;;;;4995255;28;20348;-89
2021/04/02 12:30:48;;;;;;;5.00;4.60;;;9.50;76.00;;;;;;4998326;28;20706;-89
2021/04/02 12:33:14;;;;;;;10.57;5.70;;;10.40;76.40;;;;;;5002213;28;20201;-90
2021/04/02 12:35:39;;;;;;;4.43;4.20;;;10.20;74.70;;;;;;5007781;28;20726;-91
2021/04/02 12:38:08;;;;;;;5.80;5.40;;;10.10;72.10;;;;;;5005060;28;20177;-90
2021/04/02 12:40:36;;;;;;;5.37;4.97;;;10.10;71.90;;;;;;5013615;28;20156;-90
2021/04/02 12:43:02;;;;;;;4.87;4.47;;;10.30;71.00;;;;;;5010318;28;20618;-91
2021/04/02 12:45:27;;;;;;;4.70;4.30;;;10.40;70.30;;;;;;5001271;28;20639;-92
2021/04/02 12:47:54;;;;;;;5.83;5.43;;;10.80;70.30;;;;;;4999324;28;20475;-91
2021/04/02 12:50:22;;;;;;;6.40;5.90;;;11.20;70.40;;;;;;5000685;28;20193;-92
2021/04/02 12:52:49;;;;;;;5.57;5.13;;;11.50;69.20;;;;;;5000702;28;20435;-90
2021/04/02 12:55:18;;;;;;;4.13;3.87;;;11.70;70.40;;;;;;5001925;28;20776;-89
2021/04/02 12:57:44;;;;;;;3.83;3.63;;;11.70;69.40;;;;;;5000530;28;20432;-89